Time;durP1;ratioP1;P1;durP2;ratioP2;P2;SDS_P1;SDS_P2;PMS_P1;PMS_P2;Temp;Humidity;BMP_temperature;BMP_pressure;BME280_temperature;BME280_humidity;BME280_pressure;Samples;Min_cycle;Max_cycle;Signal;HPM_P1;HPM_P2
2022/01/11 00:01:23;;;;;;;68.03;24.42;;;1.00;99.90;;;;;;4978095;28;20039;-91
2022/01/11 00:03:50;;;;;;;68.35;24.58;;;1.00;99.90;;;;;;4984562;28;20019;-89
2022/01/11 00:06:38;;;;;;;74.30;25.40;;;0.90;99.90;;;;;;4990580;28;20050;-91
2022/01/11 00:09:08;;;;;;;68.85;24.42;;;0.90;99.90;;;;;;4990671;28;20054;-89
2022/01/11 00:11:35;;;;;;;75.32;26.20;;;1.00;99.90;;;;;;4981676;28;20038;-88
2022/01/11 00:14:02;;;;;;;71.63;25.83;;;1.00;99.90;;;;;;4980397;28;20162;-88
2022/01/11 00:16:28;;;;;;;67.18;25.38;;;1.00;99.90;;;;;;4984806;28;20027;-87
2022/01/11 00:18:54;;;;;;;72.20;26.98;;;1.00;99.90;;;;;;4992712;28;20042;-89
2022/01/11 00:21:21;;;;;;;72.03;25.38;;;1.00;99.90;;;;;;4979737;28;20034;-89
2022/01/11 00:26:15;;;;;;;71.82;25.30;;;0.90;99.90;;;;;;4998831;28;20030;-87
2022/01/11 00:28:41;;;;;;;76.45;27.05;;;0.90;99.90;;;;;;4979236;28;20038;-89
2022/01/11 00:31:26;;;;;;;74.05;26.42;;;0.90;99.90;;;;;;4983939;28;20034;-90
2022/01/11 00:33:53;;;;;;;77.22;27.05;;;0.90;99.90;;;;;;4990284;28;20049;-88
2022/01/11 00:36:19;;;;;;;69.97;26.38;;;0.90;99.90;;;;;;5002992;28;20109;-88
2022/01/11 00:38:46;;;;;;;82.40;26.63;;;0.90;99.90;;;;;;4987101;28;20019;-88
2022/01/11 00:41:14;;;;;;;74.15;25.73;;;0.90;99.90;;;;;;4989876;28;20033;-87
2022/01/11 00:43:41;;;;;;;72.18;25.77;;;0.80;99.90;;;;;;4985565;28;20035;-89
2022/01/11 00:46:07;;;;;;;75.78;25.92;;;0.90;99.90;;;;;;4989814;28;20027;-89
2022/01/11 00:48:39;;;;;;;72.03;26.02;;;0.80;99.90;;;;;;4984854;28;20034;-87
2022/01/11 00:51:06;;;;;;;80.18;27.70;;;0.80;99.90;;;;;;4987029;28;20375;-89
2022/01/11 00:53:32;;;;;;;87.03;27.17;;;0.90;99.90;;;;;;4985507;28;20041;-87
2022/01/11 00:55:58;;;;;;;75.20;26.00;;;0.90;99.90;;;;;;4986134;28;20450;-87
2022/01/11 00:58:24;;;;;;;75.78;26.83;;;0.90;99.90;;;;;;4993875;28;20019;-87
2022/01/11 01:00:51;;;;;;;79.70;26.40;;;1.00;99.90;;;;;;5005373;28;20426;-88
2022/01/11 01:03:19;;;;;;;76.18;24.85;;;0.90;99.90;;;;;;4988896;28;20026;-89
2022/01/11 01:05:47;;;;;;;75.72;24.80;;;0.90;99.90;;;;;;5006022;28;20026;-88
2022/01/11 01:08:15;;;;;;;69.15;23.67;;;0.80;99.90;;;;;;4988309;28;20037;-89
2022/01/11 01:10:46;;;;;;;74.57;25.30;;;0.80;99.90;;;;;;5005311;28;20044;-89
2022/01/11 01:13:21;;;;;;;77.32;26.25;;;0.70;99.90;;;;;;4990836;28;20034;-88
2022/01/11 01:15:53;;;;;;;70.70;24.67;;;0.80;99.90;;;;;;4989758;28;20041;-89
2022/01/11 01:18:37;;;;;;;75.68;25.05;;;0.80;99.90;;;;;;4996273;28;20027;-87
2022/01/11 01:21:04;;;;;;;77.38;24.63;;;0.80;99.90;;;;;;4993140;28;20041;-87
2022/01/11 01:23:29;;;;;;;73.20;25.88;;;0.80;99.90;;;;;;5000309;28;20027;-83
2022/01/11 01:25:57;;;;;;;79.43;26.20;;;0.70;99.90;;;;;;4998341;28;20090;-86
2022/01/11 01:28:23;;;;;;;67.60;24.17;;;0.70;99.90;;;;;;4979727;28;20117;-85
2022/01/11 01:30:50;;;;;;;61.40;22.75;;;0.70;99.90;;;;;;5007100;28;20026;-85
2022/01/11 01:33:16;;;;;;;63.15;23.00;;;0.70;99.90;;;;;;5007486;28;20034;-85
2022/01/11 01:35:47;;;;;;;69.20;22.73;;;0.70;99.90;;;;;;4997128;28;20047;-84
2022/01/11 01:38:13;;;;;;;67.15;22.35;;;0.70;99.90;;;;;;4996421;28;20026;-85
2022/01/11 01:40:44;;;;;;;62.28;22.67;;;0.70;99.90;;;;;;5006090;28;20026;-88
2022/01/11 01:43:13;;;;;;;70.15;23.80;;;0.60;99.90;;;;;;5018543;28;20027;-83
2022/01/11 01:45:39;;;;;;;60.03;22.33;;;0.60;99.90;;;;;;5019329;28;20086;-85
2022/01/11 01:48:06;;;;;;;70.13;22.02;;;0.60;99.90;;;;;;5010633;28;20035;-85
2022/01/11 01:50:33;;;;;;;64.13;23.30;;;0.70;99.90;;;;;;5000924;28;20022;-86
2022/01/11 01:53:02;;;;;;;69.47;22.40;;;0.70;99.90;;;;;;5012479;28;20027;-86
2022/01/11 01:55:28;;;;;;;63.60;22.20;;;0.70;99.90;;;;;;5009352;28;20022;-84
2022/01/11 01:57:54;;;;;;;61.53;21.52;;;0.70;99.90;;;;;;5016720;28;20082;-85
2022/01/11 02:00:22;;;;;;;54.17;21.17;;;0.70;99.90;;;;;;5008811;28;20035;-84
2022/01/11 02:02:50;;;;;;;62.17;21.85;;;0.70;99.90;;;;;;4999098;28;20027;-86
2022/01/11 02:05:17;;;;;;;58.97;22.20;;;0.70;99.90;;;;;;5009492;28;20090;-83
2022/01/11 02:07:43;;;;;;;56.55;20.73;;;0.70;99.90;;;;;;5018871;28;20140;-82
2022/01/11 02:10:09;;;;;;;58.38;20.65;;;0.70;99.90;;;;;;5014356;28;20015;-82
2022/01/11 02:12:35;;;;;;;53.67;20.35;;;0.60;99.90;;;;;;4999724;28;20021;-81
2022/01/11 02:15:04;;;;;;;65.28;20.98;;;0.70;99.90;;;;;;4999857;28;20022;-80
2022/01/11 02:17:33;;;;;;;58.50;21.00;;;0.70;99.90;;;;;;5000941;28;20026;-83
2022/01/11 02:19:59;;;;;;;60.17;20.73;;;0.70;99.90;;;;;;4999902;28;20027;-80
2022/01/11 02:22:26;;;;;;;54.38;20.95;;;0.70;99.90;;;;;;5000400;28;20018;-81
2022/01/11 02:24:52;;;;;;;49.38;18.92;;;0.70;99.90;;;;;;4999508;28;20036;-83
2022/01/11 02:27:18;;;;;;;57.28;20.40;;;0.70;99.90;;;;;;5000833;28;20015;-82
2022/01/11 02:29:44;;;;;;;53.20;18.88;;;0.70;99.90;;;;;;4999577;28;20027;-82
2022/01/11 02:32:13;;;;;;;58.10;20.45;;;0.70;99.90;;;;;;5009576;28;20031;-81
2022/01/11 02:34:41;;;;;;;60.92;19.33;;;0.60;99.90;;;;;;5018885;28;20030;-82
2022/01/11 02:37:17;;;;;;;59.97;20.52;;;0.60;99.90;;;;;;5004275;28;20027;-84
2022/01/11 02:40:04;;;;;;;55.25;19.73;;;0.70;99.90;;;;;;4999065;28;20102;-81
2022/01/11 02:42:33;;;;;;;59.80;20.13;;;0.60;99.90;;;;;;4999540;28;20046;-82
2022/01/11 02:44:59;;;;;;;56.45;20.23;;;0.60;99.90;;;;;;5000119;28;20063;-83
2022/01/11 02:47:28;;;;;;;55.78;20.27;;;0.60;99.90;;;;;;4999055;28;20058;-83
2022/01/11 02:49:55;;;;;;;49.72;19.90;;;0.60;99.90;;;;;;4999094;28;20023;-81
2022/01/11 02:52:34;;;;;;;62.25;21.67;;;0.60;99.90;;;;;;4998516;28;20058;-85
2022/01/11 02:55:07;;;;;;;53.63;19.67;;;0.60;99.90;;;;;;4998673;28;20050;-81
2022/01/11 02:57:33;;;;;;;55.45;20.70;;;0.60;99.90;;;;;;5014288;28;20034;-84
2022/01/11 03:00:18;;;;;;;59.13;22.75;;;0.70;99.90;;;;;;5018161;28;20057;-82
2022/01/11 03:02:44;;;;;;;57.95;20.30;;;0.60;99.90;;;;;;4999172;28;20013;-82
2022/01/11 03:05:11;;;;;;;56.20;19.85;;;0.60;99.90;;;;;;4987637;28;20082;-88
2022/01/11 03:07:39;;;;;;;58.75;20.92;;;0.60;99.90;;;;;;5000210;28;20413;-86
2022/01/11 03:12:48;;;;;;;61.33;19.52;;;0.70;99.90;;;;;;5006218;28;20030;-86
2022/01/11 03:15:15;;;;;;;63.08;20.83;;;0.70;99.90;;;;;;4992065;28;20042;-86
2022/01/11 03:17:43;;;;;;;59.65;20.88;;;0.60;99.90;;;;;;4987102;28;20038;-83
2022/01/11 03:20:10;;;;;;;64.35;21.00;;;0.60;99.90;;;;;;4998535;28;20470;-85
2022/01/11 03:22:37;;;;;;;58.55;19.33;;;0.60;99.90;;;;;;4988886;28;20026;-86
2022/01/11 03:25:06;;;;;;;59.08;21.38;;;0.60;99.90;;;;;;4988776;28;20058;-86
2022/01/11 03:27:34;;;;;;;59.65;20.75;;;0.60;99.90;;;;;;5023371;28;20117;-84
2022/01/11 03:30:04;;;;;;;58.20;21.27;;;0.70;99.90;;;;;;5007897;28;20568;-85
2022/01/11 03:32:31;;;;;;;54.85;20.25;;;0.70;99.90;;;;;;5008666;28;20449;-86
2022/01/11 03:34:57;;;;;;;66.32;21.65;;;0.70;99.90;;;;;;5007741;28;20034;-84
2022/01/11 03:37:23;;;;;;;55.72;21.05;;;0.70;99.90;;;;;;5023778;28;20061;-87
2022/01/11 03:39:49;;;;;;;62.25;20.80;;;0.70;99.90;;;;;;5007397;28;20018;-87
2022/01/11 03:42:16;;;;;;;65.97;19.80;;;0.70;99.90;;;;;;5010461;28;20038;-86
2022/01/11 03:44:42;;;;;;;55.08;19.65;;;0.70;99.90;;;;;;4998709;28;20035;-84
2022/01/11 03:47:08;;;;;;;59.15;20.65;;;0.70;99.90;;;;;;4996396;28;20026;-84
2022/01/11 03:49:34;;;;;;;61.85;19.85;;;0.70;99.90;;;;;;4990315;28;20046;-85
2022/01/11 03:52:01;;;;;;;61.63;20.55;;;0.70;99.90;;;;;;4983916;28;20089;-85
2022/01/11 03:54:30;;;;;;;61.85;19.95;;;0.70;99.90;;;;;;4998843;28;20041;-85
2022/01/11 03:57:17;;;;;;;61.20;21.48;;;0.70;99.90;;;;;;4994069;28;20089;-84
2022/01/11 03:59:45;;;;;;;57.08;20.10;;;0.70;99.90;;;;;;4989668;28;20026;-86
2022/01/11 04:02:11;;;;;;;63.03;20.73;;;0.70;99.90;;;;;;4988447;28;20026;-85
2022/01/11 04:04:37;;;;;;;55.92;20.55;;;0.80;99.90;;;;;;5008830;28;20014;-87
2022/01/11 04:07:03;;;;;;;65.60;21.52;;;0.70;99.90;;;;;;5026508;28;20048;-88
2022/01/11 04:09:29;;;;;;;59.15;19.83;;;0.70;99.90;;;;;;5006093;28;20042;-88
2022/01/11 04:11:55;;;;;;;62.17;19.88;;;0.80;99.90;;;;;;5028874;28;20102;-88
2022/01/11 04:14:25;;;;;;;55.53;20.50;;;0.80;99.90;;;;;;4995682;28;20042;-88
2022/01/11 04:16:54;;;;;;;56.35;18.73;;;0.80;99.90;;;;;;5003660;28;20174;-88
2022/01/11 04:19:21;;;;;;;56.60;20.33;;;0.80;99.90;;;;;;4993654;28;20030;-88
2022/01/11 04:21:48;;;;;;;62.25;20.58;;;0.80;99.90;;;;;;5007555;28;20041;-89
2022/01/11 04:24:14;;;;;;;57.90;20.23;;;0.80;99.90;;;;;;4990789;28;20033;-87
2022/01/11 04:26:41;;;;;;;57.78;21.45;;;0.80;99.90;;;;;;4986539;28;20027;-87
2022/01/11 04:29:07;;;;;;;54.03;19.27;;;0.80;99.90;;;;;;4986372;28;20050;-86
2022/01/11 04:31:35;;;;;;;60.85;20.38;;;0.80;99.90;;;;;;4986148;28;20035;-88
2022/01/11 04:34:03;;;;;;;54.20;20.15;;;0.80;99.90;;;;;;4970262;28;20023;-87
2022/01/11 04:36:30;;;;;;;56.08;20.40;;;0.80;99.90;;;;;;4995747;28;20054;-89
2022/01/11 04:38:56;;;;;;;60.90;20.83;;;0.80;99.90;;;;;;4989277;28;20026;-88
2022/01/11 04:41:22;;;;;;;52.17;19.95;;;0.80;99.90;;;;;;4969051;28;20033;-87
2022/01/11 04:43:50;;;;;;;57.72;20.80;;;0.80;99.90;;;;;;5008536;28;20097;-88
2022/01/11 04:46:18;;;;;;;61.33;21.08;;;0.80;99.90;;;;;;5016887;23;20070;-84
2022/01/11 04:48:48;;;;;;;63.22;22.98;;;0.80;99.90;;;;;;4965895;29;20367;-84
2022/01/11 04:51:13;;;;;;;59.30;21.60;;;0.80;99.90;;;;;;4969188;28;20031;-84
2022/01/11 04:53:39;;;;;;;57.30;21.80;;;0.80;99.90;;;;;;4983659;28;20027;-85
2022/01/11 04:56:06;;;;;;;64.65;22.00;;;0.80;99.90;;;;;;4982933;28;20526;-84
2022/01/11 04:58:32;;;;;;;64.20;23.05;;;0.90;99.90;;;;;;4967740;28;20023;-85
2022/01/11 05:00:58;;;;;;;53.08;20.23;;;0.90;99.90;;;;;;4985703;28;20019;-83
2022/01/11 05:03:25;;;;;;;57.15;19.88;;;0.80;99.90;;;;;;4986489;28;20030;-84
2022/01/11 05:05:57;;;;;;;55.78;20.38;;;0.80;99.90;;;;;;4996159;28;20038;-83
2022/01/11 05:08:23;;;;;;;59.92;20.63;;;0.80;99.90;;;;;;4993664;28;20039;-83
2022/01/11 05:10:49;;;;;;;57.53;20.98;;;0.70;99.90;;;;;;5001198;28;20019;-82
2022/01/11 05:13:18;;;;;;;56.50;22.35;;;0.70;99.90;;;;;;5001001;28;20114;-82
2022/01/11 05:15:44;;;;;;;56.85;21.27;;;0.70;99.90;;;;;;5010836;28;20031;-83
2022/01/11 05:18:11;;;;;;;55.78;19.17;;;0.70;99.90;;;;;;5019240;28;20050;-82
2022/01/11 05:20:39;;;;;;;57.53;20.33;;;0.80;99.90;;;;;;5006339;28;20031;-83
2022/01/11 05:23:07;;;;;;;59.17;21.05;;;0.80;99.90;;;;;;4995716;28;20362;-81
2022/01/11 05:25:32;;;;;;;52.42;18.63;;;0.80;99.90;;;;;;4991796;28;20027;-83
2022/01/11 05:27:59;;;;;;;56.05;19.88;;;0.80;99.90;;;;;;4988561;28;20041;-82
2022/01/11 05:30:26;;;;;;;52.65;18.92;;;0.80;99.90;;;;;;4985672;28;20105;-84
2022/01/11 05:32:52;;;;;;;56.42;19.35;;;0.80;99.90;;;;;;5007821;28;20065;-84
2022/01/11 05:35:20;;;;;;;59.55;21.13;;;0.80;99.90;;;;;;5021622;28;20023;-85
2022/01/11 05:37:47;;;;;;;54.38;18.55;;;0.80;99.90;;;;;;4995372;28;20022;-84
2022/01/11 05:40:14;;;;;;;52.88;18.67;;;0.80;99.90;;;;;;4988516;28;20050;-83
2022/01/11 05:42:42;;;;;;;52.10;19.27;;;0.80;99.90;;;;;;4985741;28;20407;-85
2022/01/11 05:45:09;;;;;;;49.65;19.98;;;0.80;99.90;;;;;;4983130;28;20031;-85
2022/01/11 05:47:36;;;;;;;54.72;19.45;;;0.80;99.90;;;;;;4995608;28;20046;-84
2022/01/11 05:50:04;;;;;;;63.22;19.35;;;0.70;99.90;;;;;;4994593;28;20094;-84
2022/01/11 05:52:31;;;;;;;55.80;19.15;;;0.70;99.90;;;;;;4993480;28;20019;-85
2022/01/11 05:54:57;;;;;;;56.97;19.00;;;0.70;99.90;;;;;;4987003;28;20030;-85
2022/01/11 05:57:24;;;;;;;59.45;20.42;;;0.70;99.90;;;;;;4967517;28;20061;-84
2022/01/11 05:59:50;;;;;;;61.45;20.38;;;0.70;99.90;;;;;;4983835;28;20027;-85
2022/01/11 06:02:16;;;;;;;61.28;16.92;;;0.70;99.90;;;;;;4992788;28;20031;-84
2022/01/11 06:04:43;;;;;;;52.13;18.30;;;0.70;99.90;;;;;;4994486;28;20099;-82
2022/01/11 06:07:10;;;;;;;52.20;18.80;;;0.70;99.90;;;;;;4978683;28;20015;-84
2022/01/11 06:09:37;;;;;;;52.80;18.70;;;0.70;99.90;;;;;;4996430;28;20138;-84
2022/01/11 06:12:03;;;;;;;66.32;20.20;;;0.60;99.90;;;;;;4996561;28;20019;-84
2022/01/11 06:14:29;;;;;;;52.20;19.13;;;0.60;99.90;;;;;;4997407;28;20015;-83
2022/01/11 06:16:55;;;;;;;51.08;18.52;;;0.60;99.90;;;;;;4995284;28;20031;-83
2022/01/11 06:19:21;;;;;;;54.70;20.70;;;0.60;99.90;;;;;;4994920;28;20023;-84
2022/01/11 06:21:56;;;;;;;54.55;18.17;;;0.60;99.90;;;;;;4979401;28;20110;-85
2022/01/11 06:24:22;;;;;;;53.78;19.23;;;0.60;99.90;;;;;;4996545;28;20026;-83
2022/01/11 06:26:48;;;;;;;55.25;17.88;;;0.70;99.90;;;;;;5006344;28;20046;-84
2022/01/11 06:29:16;;;;;;;54.45;19.20;;;0.60;99.90;;;;;;4997354;28;20055;-82
2022/01/11 06:31:42;;;;;;;54.80;18.60;;;0.70;99.90;;;;;;4996625;28;20030;-84
2022/01/11 06:34:08;;;;;;;53.53;19.05;;;0.70;99.90;;;;;;4991335;28;20034;-86
2022/01/11 06:36:34;;;;;;;57.92;19.67;;;0.70;99.90;;;;;;4984932;28;20049;-87
2022/01/11 06:39:01;;;;;;;59.20;19.85;;;0.70;99.90;;;;;;4997147;28;20038;-85
2022/01/11 06:41:30;;;;;;;61.95;19.92;;;0.70;99.90;;;;;;4979795;28;20070;-85
2022/01/11 06:43:58;;;;;;;55.13;18.83;;;0.70;99.90;;;;;;5002838;28;20055;-84
2022/01/11 06:46:28;;;;;;;57.60;19.25;;;0.70;99.90;;;;;;4999377;28;20426;-85
2022/01/11 06:49:01;;;;;;;53.67;19.08;;;0.70;99.90;;;;;;4993257;28;20049;-84
2022/01/11 06:51:27;;;;;;;64.25;19.98;;;0.60;99.90;;;;;;5000071;28;20023;-83
2022/01/11 06:53:53;;;;;;;61.65;20.50;;;0.60;99.90;;;;;;4991558;28;20165;-85
2022/01/11 06:56:20;;;;;;;54.00;19.25;;;0.60;99.90;;;;;;5001204;28;20043;-85
2022/01/11 06:58:50;;;;;;;59.42;18.20;;;0.60;99.90;;;;;;4994877;28;20026;-86
2022/01/11 07:01:16;;;;;;;53.78;18.38;;;0.60;99.90;;;;;;5005957;28;20022;-84
2022/01/11 07:03:44;;;;;;;53.17;18.02;;;0.60;99.90;;;;;;5003931;28;20026;-87
2022/01/11 07:06:27;;;;;;;55.33;19.10;;;0.60;99.90;;;;;;4996564;28;20062;-85
2022/01/11 07:08:54;;;;;;;49.97;17.58;;;0.60;99.90;;;;;;4968221;28;20081;-86
2022/01/11 07:11:23;;;;;;;55.28;17.73;;;0.60;99.90;;;;;;4986629;28;20022;-86
2022/01/11 07:13:51;;;;;;;63.15;19.02;;;0.60;99.90;;;;;;4987433;28;20035;-85
2022/01/11 07:16:17;;;;;;;54.92;18.75;;;0.50;99.90;;;;;;4970534;28;20050;-85
2022/01/11 07:18:47;;;;;;;52.92;19.13;;;0.60;99.90;;;;;;4989312;28;20034;-85
2022/01/11 07:21:12;;;;;;;65.32;20.73;;;0.60;99.90;;;;;;4990164;28;20550;-85
2022/01/11 07:23:38;;;;;;;54.72;19.30;;;0.60;99.90;;;;;;4993951;28;20041;-87
2022/01/11 07:26:07;;;;;;;48.70;17.45;;;0.60;99.90;;;;;;4992177;28;20050;-85
2022/01/11 07:28:34;;;;;;;51.92;18.88;;;0.60;99.90;;;;;;4991924;28;20122;-85
2022/01/11 07:31:06;;;;;;;57.30;19.38;;;0.50;99.90;;;;;;4984098;28;20030;-84
2022/01/11 07:33:39;;;;;;;58.17;19.05;;;0.60;99.90;;;;;;4986008;28;20023;-88
2022/01/11 07:36:06;;;;;;;49.70;17.38;;;0.60;99.90;;;;;;4991064;28;20038;-83
2022/01/11 07:38:34;;;;;;;49.13;17.85;;;0.70;99.90;;;;;;4995473;28;20031;-84
2022/01/11 07:41:05;;;;;;;50.20;18.05;;;0.70;99.90;;;;;;4993205;28;20027;-83
2022/01/11 07:43:50;;;;;;;56.20;18.60;;;0.70;99.90;;;;;;4977650;28;20031;-83
2022/01/11 07:46:24;;;;;;;52.38;18.23;;;0.70;99.90;;;;;;4991110;28;20019;-85
2022/01/11 07:48:53;;;;;;;55.33;19.25;;;0.70;99.90;;;;;;4994071;28;20023;-83
2022/01/11 07:51:19;;;;;;;58.97;19.67;;;0.70;99.90;;;;;;4994570;28;20050;-86
2022/01/11 07:53:45;;;;;;;55.88;18.52;;;0.70;99.90;;;;;;4991136;28;20375;-84
2022/01/11 07:56:16;;;;;;;56.72;18.92;;;0.60;99.90;;;;;;4992003;28;20034;-84
2022/01/11 07:58:42;;;;;;;56.80;19.13;;;0.70;99.90;;;;;;4989854;28;20038;-84
2022/01/11 08:01:11;;;;;;;64.88;18.73;;;0.70;99.90;;;;;;5001437;28;20029;-83
2022/01/11 08:03:41;;;;;;;53.15;18.15;;;0.70;99.90;;;;;;4982002;28;20033;-84
2022/01/11 08:06:14;;;;;;;55.42;18.25;;;0.70;99.90;;;;;;4980775;28;20577;-84
2022/01/11 08:08:42;;;;;;;52.45;18.73;;;0.80;99.90;;;;;;4982884;28;20395;-84
2022/01/11 08:11:10;;;;;;;51.78;18.23;;;0.90;99.90;;;;;;4973375;28;20031;-84
2022/01/11 08:13:38;;;;;;;48.72;18.20;;;0.90;99.90;;;;;;4972073;28;20062;-84
2022/01/11 08:16:05;;;;;;;57.05;18.33;;;0.90;99.90;;;;;;4986469;28;20015;-84
2022/01/11 08:18:31;;;;;;;47.05;18.00;;;1.00;99.90;;;;;;4977246;28;20039;-83
2022/01/11 08:20:57;;;;;;;50.90;18.35;;;1.10;99.90;;;;;;4981834;28;20026;-84
2022/01/11 08:23:24;;;;;;;51.70;17.67;;;1.10;99.90;;;;;;4992274;28;20095;-87
2022/01/11 08:25:50;;;;;;;53.53;17.33;;;1.00;99.90;;;;;;4997551;28;20052;-84
2022/01/11 08:28:15;;;;;;;48.53;17.30;;;1.00;99.90;;;;;;4991488;28;20019;-85
2022/01/11 08:30:50;;;;;;;48.58;16.88;;;1.00;99.90;;;;;;4995273;28;20023;-85
2022/01/11 08:33:17;;;;;;;48.13;17.42;;;0.90;99.90;;;;;;4979213;28;20033;-85
2022/01/11 08:35:43;;;;;;;51.17;18.20;;;1.00;99.90;;;;;;4990895;28;20046;-85
2022/01/11 08:38:13;;;;;;;45.03;17.40;;;1.00;99.90;;;;;;4991605;28;20030;-86
2022/01/11 08:40:39;;;;;;;51.17;17.17;;;1.00;99.90;;;;;;4989741;28;20042;-86
2022/01/11 08:43:07;;;;;;;52.90;17.92;;;1.10;99.90;;;;;;4974299;28;20085;-83
2022/01/11 08:45:37;;;;;;;50.50;17.63;;;1.10;99.90;;;;;;4992450;28;20028;-85
2022/01/11 08:48:07;;;;;;;53.83;16.88;;;1.10;99.90;;;;;;4992020;28;20095;-86
2022/01/11 08:50:38;;;;;;;51.05;17.77;;;1.10;99.90;;;;;;4992018;28;20026;-84
2022/01/11 08:53:06;;;;;;;59.00;18.20;;;1.10;99.90;;;;;;4990625;28;20065;-86
2022/01/11 08:55:32;;;;;;;53.85;18.38;;;1.10;99.90;;;;;;4992278;28;20059;-86
2022/01/11 08:58:00;;;;;;;47.03;16.80;;;1.20;99.90;;;;;;4995123;28;20026;-86
2022/01/11 09:00:26;;;;;;;50.88;18.05;;;1.20;99.90;;;;;;4992980;28;20019;-86
2022/01/11 09:03:00;;;;;;;46.15;16.15;;;1.20;99.90;;;;;;4992042;28;20082;-85
2022/01/11 09:05:29;;;;;;;60.03;17.95;;;1.10;99.90;;;;;;4993939;28;20180;-84
2022/01/11 09:08:04;;;;;;;47.63;17.58;;;1.10;99.90;;;;;;4995557;28;20031;-85
2022/01/11 09:10:30;;;;;;;51.05;17.10;;;1.10;99.90;;;;;;5000987;28;20043;-86
2022/01/11 09:12:57;;;;;;;45.28;16.30;;;1.10;99.90;;;;;;4971768;28;20027;-86
2022/01/11 09:15:24;;;;;;;51.33;18.15;;;1.10;99.90;;;;;;4992673;28;20058;-86
2022/01/11 09:17:50;;;;;;;43.45;17.27;;;1.20;99.90;;;;;;4988058;28;20031;-86
2022/01/11 09:20:17;;;;;;;50.92;17.95;;;1.20;99.90;;;;;;4984607;28;20118;-85
2022/01/11 09:22:46;;;;;;;47.28;17.25;;;1.20;99.90;;;;;;4990152;28;20022;-84
2022/01/11 09:25:15;;;;;;;49.05;17.65;;;1.30;99.90;;;;;;5005021;28;20131;-86
2022/01/11 09:27:48;;;;;;;51.30;17.13;;;1.30;99.90;;;;;;4988711;28;20054;-85
2022/01/11 09:30:17;;;;;;;47.60;16.65;;;1.50;99.90;;;;;;4989798;28;20054;-85
2022/01/11 09:32:47;;;;;;;45.47;16.13;;;1.60;99.90;;;;;;4988373;28;20042;-85
2022/01/11 09:35:14;;;;;;;45.35;15.40;;;1.60;99.90;;;;;;4988055;28;20039;-84
2022/01/11 09:37:42;;;;;;;48.50;16.38;;;1.50;99.90;;;;;;4995179;28;20023;-84
2022/01/11 09:40:10;;;;;;;38.70;14.95;;;1.50;99.90;;;;;;4986015;28;20029;-84
2022/01/11 09:42:39;;;;;;;47.70;16.38;;;1.40;99.90;;;;;;4998028;28;20011;-85
2022/01/11 09:45:11;;;;;;;46.03;16.40;;;1.20;99.90;;;;;;4982631;28;20095;-84
2022/01/11 09:47:43;;;;;;;45.20;16.88;;;1.30;99.90;;;;;;4998159;28;20014;-85
2022/01/11 09:50:14;;;;;;;47.72;15.50;;;1.40;99.90;;;;;;4981754;28;20030;-84
2022/01/11 09:52:46;;;;;;;45.55;16.98;;;1.80;99.90;;;;;;4997860;28;20027;-85
2022/01/11 09:55:15;;;;;;;44.67;16.55;;;2.00;99.90;;;;;;4997460;28;20027;-83
2022/01/11 09:57:43;;;;;;;41.90;16.02;;;2.10;99.90;;;;;;4994093;28;20092;-83
2022/01/11 10:00:38;;;;;;;57.97;17.10;;;2.20;99.90;;;;;;4990335;28;20082;-83
2022/01/11 10:03:24;;;;;;;44.85;16.55;;;2.20;99.90;;;;;;4998706;28;20081;-84
2022/01/11 10:06:14;;;;;;;48.47;16.63;;;2.40;99.90;;;;;;4984192;28;20022;-83
2022/01/11 10:08:40;;;;;;;47.67;17.50;;;2.60;99.90;;;;;;4998285;28;20094;-82
2022/01/11 10:11:07;;;;;;;48.88;17.85;;;2.90;99.90;;;;;;4998273;28;20023;-83
2022/01/11 10:13:41;;;;;;;45.88;16.35;;;3.10;99.90;;;;;;4997542;28;20037;-84
2022/01/11 10:16:23;;;;;;;53.40;19.38;;;3.20;99.90;;;;;;4997925;28;20031;-83
2022/01/11 10:18:54;;;;;;;38.10;16.38;;;4.10;99.90;;;;;;4997926;28;20050;-81
2022/01/11 10:21:33;;;;;;;45.22;15.90;;;4.10;99.90;;;;;;4999498;28;20161;-83
2022/01/11 10:24:00;;;;;;;45.22;17.08;;;4.60;99.90;;;;;;4988045;28;20039;-83
2022/01/11 10:26:46;;;;;;;41.67;16.08;;;5.90;99.40;;;;;;4995192;28;20019;-83
2022/01/11 10:29:31;;;;;;;50.78;18.27;;;6.30;98.00;;;;;;4980219;28;20063;-85
2022/01/11 10:32:24;;;;;;;38.03;16.02;;;7.00;96.60;;;;;;4978663;28;20025;-84
2022/01/11 10:35:20;;;;;;;42.22;15.63;;;7.50;95.20;;;;;;4969275;28;20045;-85
2022/01/11 10:37:57;;;;;;;38.80;16.27;;;8.10;93.70;;;;;;4982186;28;20031;-84
2022/01/11 10:40:25;;;;;;;41.55;16.73;;;7.90;93.40;;;;;;4983108;28;20062;-84
2022/01/11 10:42:57;;;;;;;45.75;18.02;;;7.60;93.60;;;;;;4992584;28;20042;-86
2022/01/11 10:45:28;;;;;;;42.65;18.35;;;7.00;93.80;;;;;;5011480;23;20027;-87
2022/01/11 10:47:59;;;;;;;39.17;17.27;;;6.00;94.50;;;;;;4981425;28;20039;-88
2022/01/11 10:50:34;;;;;;;42.42;17.52;;;5.40;95.80;;;;;;4991100;28;20119;-87
2022/01/11 10:53:12;;;;;;;43.90;17.85;;;5.70;95.50;;;;;;4999074;28;20532;-86
2022/01/11 10:55:39;;;;;;;43.28;16.63;;;5.50;95.70;;;;;;4990330;28;20031;-87
2022/01/11 10:58:11;;;;;;;39.35;16.67;;;5.30;95.80;;;;;;4986233;28;20047;-88
2022/01/11 11:00:50;;;;;;;41.67;14.98;;;4.80;96.20;;;;;;5005084;28;20446;-88
2022/01/11 11:03:21;;;;;;;42.38;15.63;;;5.60;95.80;;;;;;4988278;28;20019;-91
2022/01/11 11:05:58;;;;;;;39.90;16.42;;;6.80;94.20;;;;;;4982759;28;20154;-86
2022/01/11 11:08:30;;;;;;;43.05;16.27;;;7.20;93.10;;;;;;4977897;28;20027;-89
2022/01/11 11:11:31;;;;;;;39.10;16.17;;;7.90;92.70;;;;;;4991322;28;20046;-85
2022/01/11 11:14:51;;;;;;;40.92;17.52;;;7.80;91.90;;;;;;4977452;28;20035;-85
2022/01/11 11:17:27;;;;;;;49.50;18.23;;;7.00;92.20;;;;;;5005208;28;20030;-86
2022/01/11 11:19:57;;;;;;;43.00;17.05;;;6.00;93.20;;;;;;4978874;28;20035;-86
2022/01/11 11:22:24;;;;;;;37.80;17.45;;;5.80;94.10;;;;;;4990403;28;20011;-83
2022/01/11 11:24:53;;;;;;;43.50;16.75;;;6.10;93.70;;;;;;4998323;28;20114;-84
2022/01/11 11:27:20;;;;;;;43.95;17.25;;;7.40;92.80;;;;;;4982958;28;20041;-84
2022/01/11 11:29:48;;;;;;;37.50;16.27;;;9.00;90.70;;;;;;4998075;28;20023;-84
2022/01/11 11:32:17;;;;;;;37.45;16.90;;;10.10;87.70;;;;;;4999079;28;20007;-81
2022/01/11 11:34:50;;;;;;;38.53;16.92;;;10.70;83.90;;;;;;4981515;28;20034;-83
2022/01/11 11:37:34;;;;;;;38.95;17.27;;;10.20;82.70;;;;;;4998204;28;20046;-86
2022/01/11 11:40:07;;;;;;;41.43;18.60;;;9.80;84.00;;;;;;4998595;28;20023;-84
2022/01/11 11:42:34;;;;;;;41.53;16.98;;;9.60;84.20;;;;;;5014928;28;20022;-86
2022/01/11 11:45:00;;;;;;;40.85;17.45;;;9.40;84.60;;;;;;4997778;28;20054;-84
2022/01/11 11:47:35;;;;;;;45.80;17.58;;;9.80;84.00;;;;;;4996192;28;20023;-84
2022/01/11 11:50:06;;;;;;;35.53;16.92;;;10.10;83.20;;;;;;4997624;28;20086;-85
2022/01/11 11:52:38;;;;;;;39.47;17.85;;;9.60;82.80;;;;;;4994615;28;20055;-85
2022/01/11 11:55:23;;;;;;;41.25;17.50;;;8.60;84.50;;;;;;5013305;28;20081;-85
2022/01/11 11:57:54;;;;;;;44.65;17.13;;;7.80;86.70;;;;;;4998659;28;20019;-84
2022/01/11 12:00:27;;;;;;;42.67;18.05;;;7.20;88.90;;;;;;4998661;28;20023;-86
2022/01/11 12:03:04;;;;;;;46.47;17.63;;;6.70;90.10;;;;;;5006251;28;20031;-88
2022/01/11 12:05:46;;;;;;;42.65;17.33;;;6.30;90.60;;;;;;4995774;28;20281;-86
2022/01/11 12:08:41;;;;;;;43.00;16.77;;;5.80;91.10;;;;;;4993904;28;20034;-87
2022/01/11 12:11:12;;;;;;;42.72;17.05;;;5.20;92.00;;;;;;4984411;28;20042;-85
2022/01/11 12:13:53;;;;;;;49.10;17.25;;;4.80;92.60;;;;;;5008465;28;20022;-84
2022/01/11 12:16:24;;;;;;;41.25;16.45;;;4.60;93.30;;;;;;4995544;28;20046;-85
2022/01/11 12:18:57;;;;;;;38.95;15.10;;;4.50;93.60;;;;;;4980719;28;20093;-86
2022/01/11 12:21:25;;;;;;;48.63;17.77;;;4.40;94.10;;;;;;4985553;28;20030;-86
2022/01/11 12:23:53;;;;;;;45.13;16.90;;;4.20;94.40;;;;;;4995065;28;20022;-88
2022/01/11 12:26:23;;;;;;;50.03;17.75;;;4.00;95.00;;;;;;4995828;28;20031;-88
2022/01/11 12:29:11;;;;;;;45.42;16.73;;;3.70;95.60;;;;;;5010000;28;20038;-87
2022/01/11 12:31:46;;;;;;;45.55;16.27;;;3.50;96.10;;;;;;4997211;28;20022;-88
2022/01/11 12:34:13;;;;;;;50.50;18.35;;;3.40;96.70;;;;;;4983197;28;20046;-87
2022/01/11 12:37:01;;;;;;;44.53;16.33;;;3.10;97.20;;;;;;4985363;28;20031;-87
2022/01/11 12:39:31;;;;;;;40.65;15.68;;;2.90;98.00;;;;;;4990318;28;20027;-87
2022/01/11 12:41:58;;;;;;;44.33;16.38;;;2.70;98.50;;;;;;4985273;28;20034;-87
2022/01/11 12:47:09;;;;;;;44.90;16.88;;;2.80;99.40;;;;;;5010378;28;20027;-87
2022/01/11 12:49:41;;;;;;;47.30;16.75;;;2.90;99.50;;;;;;5000608;28;20022;-87
2022/01/11 12:52:12;;;;;;;46.65;17.67;;;2.80;99.70;;;;;;4996899;28;20019;-88
2022/01/11 12:54:41;;;;;;;46.30;16.80;;;2.80;99.90;;;;;;4989497;28;20027;-88
2022/01/11 12:57:12;;;;;;;45.80;17.05;;;2.70;99.90;;;;;;4991757;28;20026;-88